createdAt,value
2023-04-20T00:00:25.487Z,13.01
2023-04-20T00:01:26.669Z,13.01
2023-04-20T00:02:23.561Z,13.00
2023-04-20T00:03:23.829Z,13
2023-04-20T00:04:23.444Z,12.97
2023-04-20T00:05:23.931Z,12.94
2023-04-20T00:06:24.084Z,12.90
2023-04-20T00:07:23.984Z,12.91
2023-04-20T00:08:24.099Z,12.88
2023-04-20T00:09:23.866Z,12.80
2023-04-20T00:10:24.006Z,12.76
2023-04-20T00:11:23.956Z,12.77
2023-04-20T00:12:23.947Z,12.75
2023-04-20T00:13:24.151Z,12.71
2023-04-20T00:14:23.814Z,12.70
2023-04-20T00:15:24.286Z,12.71
2023-04-20T00:16:37.691Z,12.69
2023-04-20T00:17:23.711Z,12.65
2023-04-20T00:18:23.837Z,12.66
2023-04-20T00:19:23.630Z,12.61
2023-04-20T00:20:23.777Z,12.57
2023-04-20T00:21:23.957Z,12.55
2023-04-20T00:22:24.150Z,12.55
2023-04-20T00:23:24.304Z,12.52
2023-04-20T00:24:23.769Z,12.52
2023-04-20T00:25:24.093Z,12.48
2023-04-20T00:26:23.893Z,12.47
2023-04-20T00:27:23.892Z,12.47
2023-04-20T00:28:23.965Z,12.45
2023-04-20T00:29:23.710Z,12.43
2023-04-20T00:30:24.490Z,12.44
2023-04-20T00:31:23.934Z,12.46
2023-04-20T00:32:24.021Z,12.46
2023-04-20T00:33:24.270Z,12.44
2023-04-20T00:34:23.596Z,12.43
2023-04-20T00:35:23.991Z,12.44
2023-04-20T00:36:23.545Z,12.43
2023-04-20T00:37:23.803Z,12.39
2023-04-20T00:38:24.086Z,12.41
2023-04-20T00:39:23.599Z,12.43
2023-04-20T00:40:24.047Z,12.41
2023-04-20T00:41:24.187Z,12.40
2023-04-20T00:42:23.952Z,12.39
2023-04-20T00:43:24.322Z,12.41
2023-04-20T00:44:23.626Z,12.38
2023-04-20T00:45:24.357Z,12.39
2023-04-20T00:46:23.847Z,12.38
2023-04-20T00:47:24.266Z,12.38
2023-04-20T00:48:23.649Z,12.30
2023-04-20T00:49:23.805Z,12.27
2023-04-20T00:50:24.090Z,12.30
2023-04-20T00:51:23.952Z,12.26
2023-04-20T00:52:24.161Z,12.26
2023-04-20T00:53:23.789Z,12.26
2023-04-20T00:54:23.773Z,12.25
2023-04-20T00:55:24.180Z,12.22
2023-04-20T00:56:23.674Z,12.21
2023-04-20T00:57:23.715Z,12.21
2023-04-20T00:58:24.333Z,12.22
2023-04-20T00:59:23.446Z,12.18
2023-04-20T01:00:24.749Z,12.18
2023-04-20T01:01:24.025Z,12.16
2023-04-20T01:02:23.826Z,12.12
2023-04-20T01:03:23.856Z,12.13
2023-04-20T01:04:23.890Z,12.11
2023-04-20T01:05:24.315Z,12.06
2023-04-20T01:06:23.947Z,12.06
2023-04-20T01:07:23.821Z,12.02
2023-04-20T01:08:23.968Z,12.02
2023-04-20T01:09:24.090Z,11.98
2023-04-20T01:10:24.326Z,12
2023-04-20T01:11:23.679Z,11.99
2023-04-20T01:12:23.760Z,12.00
2023-04-20T01:13:23.747Z,11.99
2023-04-20T01:14:24.033Z,11.98
2023-04-20T01:15:23.780Z,11.97
2023-04-20T01:16:23.662Z,11.95
2023-04-20T01:17:23.786Z,11.93
2023-04-20T01:18:23.944Z,11.93
2023-04-20T01:19:23.979Z,11.93
2023-04-20T01:20:23.909Z,11.89
2023-04-20T01:21:23.717Z,11.90
2023-04-20T01:22:23.873Z,11.87
2023-04-20T01:23:24.352Z,11.86
2023-04-20T01:24:23.815Z,11.89
2023-04-20T01:25:24.120Z,11.86
2023-04-20T01:26:23.796Z,11.83
2023-04-20T01:27:23.884Z,11.85
2023-04-20T01:28:23.699Z,11.85
2023-04-20T01:29:23.666Z,11.83
2023-04-20T01:30:23.967Z,11.82
2023-04-20T01:31:23.649Z,11.83
2023-04-20T01:32:23.711Z,11.83
2023-04-20T01:33:23.777Z,11.84
2023-04-20T01:34:24.025Z,11.85
2023-04-20T01:35:24.202Z,11.81
2023-04-20T01:36:23.633Z,11.82
2023-04-20T01:37:23.386Z,11.83
2023-04-20T01:38:24.683Z,11.82
2023-04-20T01:39:24.160Z,11.82
2023-04-20T01:40:23.813Z,11.82
2023-04-20T01:41:23.772Z,11.81
2023-04-20T01:42:24.065Z,11.80
2023-04-20T01:43:23.729Z,11.81
2023-04-20T01:44:23.711Z,11.82
2023-04-20T01:45:23.918Z,11.80
2023-04-20T01:46:23.702Z,11.81
2023-04-20T01:47:23.798Z,11.84
2023-04-20T01:48:24.209Z,11.83
2023-04-20T01:49:23.630Z,11.82
2023-04-20T01:50:24.024Z,11.84
2023-04-20T01:51:23.812Z,11.83
2023-04-20T01:52:23.880Z,11.84
2023-04-20T01:53:23.796Z,11.84
2023-04-20T01:54:24.072Z,11.86
2023-04-20T01:55:24.030Z,11.85
2023-04-20T01:56:23.776Z,11.82
2023-04-20T01:57:23.783Z,11.85
2023-04-20T01:58:24.293Z,11.87
2023-04-20T01:59:23.474Z,11.89
2023-04-20T02:00:24.600Z,11.89
2023-04-20T02:01:23.906Z,11.90
2023-04-20T02:02:23.875Z,11.90
2023-04-20T02:03:24.049Z,11.89
2023-04-20T02:04:23.659Z,11.89
2023-04-20T02:05:23.709Z,11.89
2023-04-20T02:06:23.787Z,11.92
2023-04-20T02:07:24.307Z,11.93
2023-04-20T02:08:23.970Z,11.94
2023-04-20T02:09:24.073Z,11.94
2023-04-20T02:10:23.728Z,11.95
2023-04-20T02:11:23.619Z,11.97
2023-04-20T02:12:24.108Z,11.97
2023-04-20T02:13:23.536Z,12
2023-04-20T02:14:23.995Z,12.01
2023-04-20T02:15:23.921Z,12.03
2023-04-20T02:16:24.182Z,12.06
2023-04-20T02:17:23.945Z,12.06
2023-04-20T02:18:23.999Z,12.07
2023-04-20T02:19:23.839Z,12.11
2023-04-20T02:20:24.120Z,12.10
2023-04-20T02:21:23.635Z,12.11
2023-04-20T02:22:23.777Z,12.10
2023-04-20T02:23:23.868Z,12.06
2023-04-20T02:24:23.451Z,12.06
2023-04-20T02:25:23.734Z,12.07
2023-04-20T02:26:23.664Z,12.09
2023-04-20T02:27:23.631Z,11.98
2023-04-20T02:28:23.577Z,11.95
2023-04-20T02:29:32.045Z,12.02
2023-04-20T02:30:23.991Z,12.05
2023-04-20T02:31:31.659Z,12.07
2023-04-20T02:32:23.923Z,12.08
2023-04-20T02:33:23.867Z,12.11
2023-04-20T02:34:23.736Z,12.11
2023-04-20T02:35:23.948Z,12.14
2023-04-20T02:36:23.632Z,12.17
2023-04-20T02:37:23.657Z,12.20
2023-04-20T02:38:23.732Z,12.22
2023-04-20T02:39:23.662Z,12.25
2023-04-20T02:40:24.141Z,12.26
2023-04-20T02:41:23.391Z,12.27
2023-04-20T02:42:24.043Z,12.30
2023-04-20T02:43:23.844Z,12.31
2023-04-20T02:44:23.866Z,12.32
2023-04-20T02:45:24.379Z,12.31
2023-04-20T02:46:23.659Z,12.35
2023-04-20T02:47:23.564Z,12.36
2023-04-20T02:48:24.242Z,12.39
2023-04-20T02:49:23.693Z,12.40
2023-04-20T02:50:23.837Z,12.43
2023-04-20T02:51:23.917Z,12.43
2023-04-20T02:52:24.049Z,12.45
2023-04-20T02:53:23.989Z,12.47
2023-04-20T02:54:24.095Z,12.5
2023-04-20T02:55:24.445Z,12.53
2023-04-20T02:56:23.499Z,12.54
2023-04-20T02:57:23.626Z,12.56
2023-04-20T02:58:23.944Z,12.56
2023-04-20T02:59:24.163Z,12.56
2023-04-20T03:00:24.763Z,12.59
2023-04-20T03:01:24.417Z,12.61
2023-04-20T03:02:24.179Z,12.62
2023-04-20T03:03:23.974Z,12.62
2023-04-20T03:04:23.807Z,12.64
2023-04-20T03:05:23.938Z,12.64
2023-04-20T03:06:24.473Z,12.67
2023-04-20T03:07:23.950Z,12.68
2023-04-20T03:08:24.360Z,12.69
2023-04-20T03:09:23.761Z,12.72
2023-04-20T03:10:24.243Z,12.72
2023-04-20T03:11:23.791Z,12.72
2023-04-20T03:12:23.960Z,12.73
2023-04-20T03:13:23.977Z,12.76
2023-04-20T03:14:23.808Z,12.76
2023-04-20T03:15:23.805Z,12.78
2023-04-20T03:16:23.947Z,12.78
2023-04-20T03:17:23.966Z,12.79
2023-04-20T03:18:24.159Z,12.79
2023-04-20T03:19:24.115Z,12.76
2023-04-20T03:20:24.023Z,12.77
2023-04-20T03:21:23.808Z,12.80
2023-04-20T03:22:24.112Z,12.79
2023-04-20T03:24:27.476Z,12.78
2023-04-20T03:25:24.454Z,12.80
2023-04-20T03:26:23.999Z,12.81
2023-04-20T03:27:24.384Z,12.75
2023-04-20T03:28:23.915Z,12.74
2023-04-20T03:29:24.034Z,12.85
2023-04-20T03:30:24.812Z,13.03
2023-04-20T03:31:24.164Z,12.89
2023-04-20T03:32:23.945Z,12.83
2023-04-20T03:33:24.002Z,12.69
2023-04-20T03:34:23.832Z,12.94
2023-04-20T03:35:24.324Z,13.39
2023-04-20T03:36:23.921Z,13.21
2023-04-20T03:37:23.703Z,13.09
2023-04-20T03:38:24.304Z,13.02
2023-04-20T03:39:23.752Z,12.85
2023-04-20T03:40:24.412Z,13.02
2023-04-20T03:41:24.034Z,13.00
2023-04-20T03:42:23.777Z,12.82
2023-04-20T03:43:24.070Z,12.67
2023-04-20T03:44:24.015Z,12.57
2023-04-20T03:45:24.371Z,12.57
2023-04-20T03:46:24.042Z,12.81
2023-04-20T03:47:24.069Z,12.89
2023-04-20T03:48:23.660Z,12.70
2023-04-20T03:49:24.127Z,12.70
2023-04-20T03:50:23.991Z,12.71
2023-04-20T03:51:23.796Z,12.70
2023-04-20T03:52:23.922Z,12.56
2023-04-20T03:53:24.089Z,12.53
2023-04-20T03:54:23.986Z,12.47
2023-04-20T03:55:23.877Z,12.55
2023-04-20T03:56:24.088Z,12.92
2023-04-20T03:57:23.675Z,13.10
2023-04-20T03:58:23.919Z,12.98
2023-04-20T03:59:23.903Z,12.73
2023-04-20T04:00:25.539Z,12.60
2023-04-20T04:01:23.870Z,12.57
2023-04-20T04:02:24.124Z,12.55
2023-04-20T04:03:24.041Z,12.54
2023-04-20T04:04:24.473Z,12.56
2023-04-20T04:05:24.947Z,12.54
2023-04-20T04:06:23.959Z,12.51
2023-04-20T04:07:24.150Z,12.59
2023-04-20T04:08:23.798Z,12.5
2023-04-20T04:09:24.126Z,12.50
2023-04-20T04:10:23.871Z,12.45
2023-04-20T04:11:23.674Z,12.48
2023-04-20T04:12:24.629Z,12.49
2023-04-20T04:13:23.988Z,12.52
2023-04-20T04:14:24.538Z,12.52
2023-04-20T04:15:24.491Z,12.62
2023-04-20T04:16:24.317Z,12.57
2023-04-20T04:17:23.882Z,12.52
2023-04-20T04:18:24.043Z,12.47
2023-04-20T04:19:23.889Z,12.46
2023-04-20T04:20:23.679Z,12.48
2023-04-20T04:21:23.926Z,12.53
2023-04-20T04:22:23.619Z,12.5
2023-04-20T04:23:23.750Z,12.52
2023-04-20T04:24:23.870Z,12.48
2023-04-20T04:25:24.659Z,12.42
2023-04-20T04:26:24.025Z,12.43
2023-04-20T04:27:23.932Z,12.47
2023-04-20T04:28:24.443Z,12.48
2023-04-20T04:29:24.127Z,12.51
2023-04-20T04:30:24.027Z,12.48
2023-04-20T04:31:23.659Z,12.50
2023-04-20T04:32:24.595Z,12.5
2023-04-20T04:33:24.010Z,12.52
2023-04-20T04:34:23.870Z,12.55
2023-04-20T04:35:24.129Z,12.54
2023-04-20T04:36:23.962Z,12.55
2023-04-20T04:37:24.000Z,12.60
2023-04-20T04:38:23.647Z,12.62
2023-04-20T04:39:24.253Z,12.70
2023-04-20T04:40:24.143Z,12.67
2023-04-20T04:41:24.075Z,12.64
2023-04-20T04:42:28.985Z,12.60
2023-04-20T04:43:24.214Z,12.60
2023-04-20T04:44:23.908Z,12.63
2023-04-20T04:45:23.712Z,12.64
2023-04-20T04:46:29.252Z,12.66
2023-04-20T04:47:24.018Z,12.70
2023-04-20T04:48:24.032Z,12.72
2023-04-20T04:49:24.068Z,12.75
2023-04-20T04:50:29.034Z,12.76
2023-04-20T04:51:24.732Z,12.80
2023-04-20T04:52:29.343Z,12.82
2023-04-20T04:53:24.354Z,12.84
2023-04-20T04:54:29.264Z,12.87
2023-04-20T04:55:24.057Z,12.91
2023-04-20T04:56:23.610Z,12.94
2023-04-20T04:57:23.943Z,12.94
2023-04-20T04:58:24.453Z,12.93
2023-04-20T04:59:23.685Z,12.94
2023-04-20T05:00:25.304Z,12.97
2023-04-20T05:01:24.537Z,12.98
2023-04-20T05:02:38.669Z,13.01
2023-04-20T05:03:24.033Z,13.03
2023-04-20T05:04:24.318Z,13.04
2023-04-20T05:05:24.329Z,13
2023-04-20T05:06:24.122Z,12.92
2023-04-20T05:07:23.953Z,12.88
2023-04-20T05:08:24.742Z,12.83
2023-04-20T05:09:24.225Z,12.80
2023-04-20T05:10:24.164Z,12.77
2023-04-20T05:11:23.950Z,12.71
2023-04-20T05:12:24.048Z,12.68
2023-04-20T05:13:24.179Z,12.72
2023-04-20T05:14:23.948Z,12.72
2023-04-20T05:15:23.944Z,12.75
2023-04-20T05:16:23.916Z,12.63
2023-04-20T05:17:24.422Z,12.54
2023-04-20T05:18:24.213Z,12.5
2023-04-20T05:19:23.957Z,12.47
2023-04-20T05:20:24.495Z,12.44
2023-04-20T05:21:24.552Z,12.40
2023-04-20T05:22:24.094Z,12.63
2023-04-20T05:23:24.176Z,12.63
2023-04-20T05:24:24.197Z,12.56
2023-04-20T05:25:24.224Z,12.53
2023-04-20T05:26:24.022Z,12.53
2023-04-20T05:27:24.086Z,12.47
2023-04-20T05:28:24.021Z,12.48
2023-04-20T05:29:24.128Z,12.44
2023-04-20T05:30:46.579Z,12.40
2023-04-20T05:31:24.251Z,12.42
2023-04-20T05:32:24.133Z,12.37
2023-04-20T05:33:24.143Z,12.37
2023-04-20T05:34:23.793Z,12.37
2023-04-20T05:35:24.070Z,12.39
2023-04-20T05:36:23.812Z,12.42
2023-04-20T05:37:24.028Z,12.42
2023-04-20T05:38:23.801Z,12.43
2023-04-20T05:39:24.141Z,12.43
2023-04-20T05:41:27.715Z,12.49
2023-04-20T05:42:24.493Z,12.52
2023-04-20T05:43:24.259Z,12.51
2023-04-20T05:44:24.057Z,12.55
2023-04-20T05:45:24.060Z,12.60
2023-04-20T05:46:24.000Z,12.66
2023-04-20T05:47:23.879Z,12.67
2023-04-20T05:48:24.224Z,12.68
2023-04-20T05:49:23.885Z,12.68
2023-04-20T05:50:24.846Z,12.72
2023-04-20T05:51:24.292Z,12.70
2023-04-20T05:53:27.691Z,12.64
2023-04-20T05:54:23.879Z,12.59
2023-04-20T05:55:24.412Z,12.62
2023-04-20T05:56:24.065Z,12.63
2023-04-20T05:57:23.869Z,12.60
2023-04-20T05:58:24.779Z,12.60
2023-04-20T05:59:24.019Z,12.68
2023-04-20T06:00:26.278Z,12.62
2023-04-20T06:01:23.928Z,12.56
2023-04-20T06:02:24.488Z,12.56
2023-04-20T06:03:24.412Z,12.55
2023-04-20T06:04:24.320Z,12.62
2023-04-20T06:05:24.578Z,12.60
2023-04-20T06:06:24.940Z,12.57
2023-04-20T06:07:23.802Z,12.57
2023-04-20T06:08:23.839Z,12.55
2023-04-20T06:09:23.858Z,12.52
2023-04-20T06:10:24.478Z,12.47
2023-04-20T06:11:23.974Z,12.47
2023-04-20T06:12:25.709Z,12.44
2023-04-20T06:13:23.918Z,12.37
2023-04-20T06:14:23.742Z,12.40
2023-04-20T06:15:24.763Z,12.42
2023-04-20T06:16:23.588Z,12.41
2023-04-20T06:17:23.862Z,12.38
2023-04-20T06:18:23.697Z,12.33
2023-04-20T06:19:24.138Z,12.33
2023-04-20T06:20:23.842Z,12.31
2023-04-20T06:21:23.875Z,12.34
2023-04-20T06:22:24.073Z,12.31
2023-04-20T06:23:24.292Z,12.34
2023-04-20T06:24:24.151Z,12.33
2023-04-20T06:25:24.018Z,12.35
2023-04-20T06:26:23.859Z,12.39
2023-04-20T06:27:23.840Z,12.42
2023-04-20T06:28:24.609Z,12.47
2023-04-20T06:29:23.857Z,12.52
2023-04-20T06:30:24.749Z,12.56
2023-04-20T06:31:24.284Z,12.58
2023-04-20T06:32:23.887Z,12.64
2023-04-20T06:33:24.041Z,12.63
2023-04-20T06:34:23.782Z,12.63
2023-04-20T06:35:23.969Z,12.64
2023-04-20T06:36:23.940Z,12.66
2023-04-20T06:37:24.110Z,12.66
2023-04-20T06:38:24.052Z,12.64
2023-04-20T06:39:24.176Z,12.67
2023-04-20T06:40:24.369Z,12.67
2023-04-20T06:41:23.836Z,12.63
2023-04-20T06:42:24.088Z,12.68
2023-04-20T06:43:23.822Z,12.68
2023-04-20T06:44:24.081Z,12.69
2023-04-20T06:45:24.465Z,12.71
2023-04-20T06:46:24.059Z,12.73
2023-04-20T06:47:23.954Z,12.75
2023-04-20T06:48:30.779Z,12.78
2023-04-20T06:49:24.085Z,12.80
2023-04-20T06:50:24.249Z,12.85
2023-04-20T06:51:24.163Z,12.84
2023-04-20T06:52:24.296Z,12.85
2023-04-20T06:53:24.182Z,12.89
2023-04-20T06:54:24.199Z,12.88
2023-04-20T06:55:24.316Z,12.87
2023-04-20T06:56:24.195Z,12.90
2023-04-20T06:57:24.241Z,12.93
2023-04-20T06:58:24.044Z,12.97
2023-04-20T06:59:24.536Z,12.99
2023-04-20T07:00:25.502Z,13.02
2023-04-20T07:01:24.540Z,13.03
2023-04-20T07:02:24.401Z,13.04
2023-04-20T07:03:24.493Z,13.05
2023-04-20T07:04:23.679Z,13.03
2023-04-20T07:05:24.886Z,13.02
2023-04-20T07:06:24.247Z,13.08
2023-04-20T07:07:24.502Z,13.03
2023-04-20T07:08:24.568Z,13.02
2023-04-20T07:09:24.210Z,12.98
2023-04-20T07:10:24.588Z,13.02
2023-04-20T07:11:29.474Z,13.07
2023-04-20T07:12:24.130Z,13.06
2023-04-20T07:13:24.307Z,13.06
2023-04-20T07:14:23.964Z,13.04
2023-04-20T07:15:24.160Z,13.05
2023-04-20T07:16:24.212Z,13.04
2023-04-20T07:17:24.222Z,13.03
2023-04-20T07:18:24.021Z,13.05
2023-04-20T07:19:31.673Z,13.08
2023-04-20T07:20:24.503Z,13.14
2023-04-20T07:21:24.550Z,13.17
2023-04-20T07:22:24.363Z,13.17
2023-04-20T07:23:23.920Z,13.18
2023-04-20T07:24:24.639Z,13.27
2023-04-20T07:25:24.471Z,13.21
2023-04-20T07:26:23.937Z,13.18
2023-04-20T07:27:23.637Z,13.13
2023-04-20T07:28:24.116Z,13.13
2023-04-20T07:29:24.043Z,13.09
2023-04-20T07:30:24.436Z,13.06
2023-04-20T07:31:24.749Z,13.01
2023-04-20T07:32:24.451Z,12.96
2023-04-20T07:33:24.143Z,12.96
2023-04-20T07:34:24.116Z,13.02
2023-04-20T07:35:23.956Z,13
2023-04-20T07:36:24.157Z,12.99
2023-04-20T07:37:25.734Z,13.01
2023-04-20T07:38:23.830Z,13.02
2023-04-20T07:39:24.549Z,13.03
2023-04-20T07:40:24.102Z,13.06
2023-04-20T07:41:23.677Z,13.12
2023-04-20T07:42:23.913Z,13.13
2023-04-20T07:43:24.660Z,13.18
2023-04-20T07:44:24.229Z,13.20
2023-04-20T07:45:24.564Z,13.20
2023-04-20T07:46:24.331Z,13.23
2023-04-20T07:47:23.995Z,13.25
2023-04-20T07:48:24.042Z,13.35
2023-04-20T07:49:23.748Z,13.41
2023-04-20T07:50:24.741Z,13.42
2023-04-20T07:51:24.245Z,13.40
2023-04-20T07:52:24.387Z,13.35
2023-04-20T07:53:24.377Z,13.33
2023-04-20T07:54:24.451Z,13.40
2023-04-20T07:55:21.641Z,13.55
2023-04-20T07:57:24.488Z,13.53
2023-04-20T07:58:24.531Z,13.47
2023-04-20T07:59:24.401Z,13.48
2023-04-20T08:00:25.338Z,13.39
2023-04-20T08:01:24.251Z,13.39
2023-04-20T08:02:24.296Z,13.38
2023-04-20T08:03:25.072Z,13.56
2023-04-20T08:04:24.757Z,13.56
2023-04-20T08:05:24.528Z,13.55
2023-04-20T08:06:24.367Z,13.50
2023-04-20T08:07:24.311Z,13.35
2023-04-20T08:08:24.150Z,13.35
2023-04-20T08:09:23.790Z,13.54
2023-04-20T08:10:24.504Z,13.39
2023-04-20T08:11:23.953Z,13.19
2023-04-20T08:12:24.082Z,13.13
2023-04-20T08:13:24.072Z,13.21
2023-04-20T08:14:23.947Z,13.08
2023-04-20T08:15:24.446Z,12.97
2023-04-20T08:16:24.172Z,13.04
2023-04-20T08:17:24.053Z,13.05
2023-04-20T08:18:23.577Z,12.97
2023-04-20T08:19:23.945Z,12.94
2023-04-20T08:20:24.069Z,12.97
2023-04-20T08:21:25.494Z,13.03
2023-04-20T08:22:23.576Z,13.06
2023-04-20T08:23:24.269Z,13.13
2023-04-20T08:24:24.013Z,13.26
2023-04-20T08:25:25.545Z,13.31
2023-04-20T08:26:24.249Z,13.22
2023-04-20T08:27:23.765Z,13.25
2023-04-20T08:29:23.833Z,13.13
2023-04-20T08:30:24.690Z,13.43
2023-04-20T08:31:24.338Z,13.39
2023-04-20T08:32:24.224Z,13.29
2023-04-20T08:33:24.096Z,13.20
2023-04-20T08:34:24.017Z,13.07
2023-04-20T08:35:23.960Z,12.97
2023-04-20T08:36:24.091Z,13
2023-04-20T08:37:23.784Z,13.17
2023-04-20T08:38:33.440Z,13.19
2023-04-20T08:39:24.291Z,13.10
2023-04-20T08:40:24.475Z,13.08
2023-04-20T08:41:24.222Z,13.12
2023-04-20T08:42:23.982Z,13.27
2023-04-20T08:43:24.200Z,13.25
2023-04-20T08:44:23.994Z,13.21
2023-04-20T08:45:24.661Z,13.20
2023-04-20T08:46:24.703Z,13.30
2023-04-20T08:47:24.583Z,13.43
2023-04-20T08:48:24.310Z,13.39
2023-04-20T08:49:24.033Z,13.42
2023-04-20T08:50:24.084Z,13.38
2023-04-20T08:51:24.229Z,13.38
2023-04-20T08:52:23.957Z,13.39
2023-04-20T08:53:23.690Z,13.33
2023-04-20T08:54:24.822Z,13.36
2023-04-20T08:55:23.972Z,13.38
2023-04-20T08:56:23.948Z,13.42
2023-04-20T08:57:24.596Z,13.52
2023-04-20T08:58:24.584Z,13.60
2023-04-20T08:59:24.535Z,13.60
2023-04-20T09:00:25.335Z,13.61
2023-04-20T09:01:34.401Z,13.58
2023-04-20T09:02:24.486Z,13.57
2023-04-20T09:03:24.394Z,13.53
2023-04-20T09:04:25.017Z,13.53
2023-04-20T09:05:24.182Z,13.47
2023-04-20T09:06:24.356Z,13.41
2023-04-20T09:07:24.267Z,13.43
2023-04-20T09:08:24.320Z,13.41
2023-04-20T09:09:24.509Z,13.46
2023-04-20T09:10:24.222Z,13.51
2023-04-20T09:11:24.069Z,13.56
2023-04-20T09:12:23.665Z,13.51
2023-04-20T09:13:24.304Z,13.50
2023-04-20T09:14:24.184Z,13.5
2023-04-20T09:15:24.553Z,13.51
2023-04-20T09:16:24.182Z,13.67
2023-04-20T09:17:24.372Z,13.84
2023-04-20T09:18:24.420Z,14.10
2023-04-20T09:19:24.131Z,13.97
2023-04-20T09:20:23.881Z,13.83
2023-04-20T09:21:24.464Z,13.77
2023-04-20T09:22:24.192Z,13.73
2023-04-20T09:23:24.425Z,13.70
2023-04-20T09:24:24.034Z,13.77
2023-04-20T09:25:24.344Z,13.79
2023-04-20T09:26:23.875Z,13.85
2023-04-20T09:27:24.331Z,13.90
2023-04-20T09:28:24.122Z,13.93
2023-04-20T09:29:23.878Z,14.02
2023-04-20T09:30:24.674Z,14.10
2023-04-20T09:31:24.358Z,14.21
2023-04-20T09:32:24.654Z,14.31
2023-04-20T09:33:24.196Z,14.40
2023-04-20T09:34:24.133Z,14.50
2023-04-20T09:35:24.511Z,14.57
2023-04-20T09:36:23.933Z,14.67
2023-04-20T09:37:24.099Z,14.72
2023-04-20T09:38:24.501Z,14.77
2023-04-20T09:39:24.287Z,14.78
2023-04-20T09:40:24.667Z,14.93
2023-04-20T09:41:24.170Z,15
2023-04-20T09:42:24.197Z,15.12
2023-04-20T09:43:23.884Z,15.29
2023-04-20T09:44:24.012Z,15.45
2023-04-20T09:45:24.625Z,15.56
2023-04-20T09:46:24.448Z,15.71
2023-04-20T09:47:24.340Z,15.86
2023-04-20T09:48:24.290Z,15.97
2023-04-20T09:49:24.212Z,16.03
2023-04-20T09:50:31.968Z,16.24
2023-04-20T09:51:24.281Z,16.39
2023-04-20T09:52:24.183Z,16.43
2023-04-20T09:53:23.983Z,16.46
2023-04-20T09:54:24.134Z,16.47
2023-04-20T09:55:23.971Z,16.53
2023-04-20T09:56:24.195Z,16.57
2023-04-20T09:57:24.064Z,16.61
2023-04-20T09:58:23.958Z,16.74
2023-04-20T09:59:24.336Z,16.87
2023-04-20T10:00:25.006Z,17.00
2023-04-20T10:01:24.059Z,17.18
2023-04-20T10:02:24.224Z,17.44
2023-04-20T10:03:24.697Z,17.51
2023-04-20T10:04:24.542Z,17.56
2023-04-20T10:05:24.126Z,17.67
2023-04-20T10:06:23.870Z,17.75
2023-04-20T10:07:24.546Z,17.79
2023-04-20T10:08:24.343Z,17.83
2023-04-20T10:09:24.522Z,17.90
2023-04-20T10:10:43.352Z,18.03
2023-04-20T10:11:24.040Z,18.17
2023-04-20T10:12:24.453Z,18.18
2023-04-20T10:13:24.492Z,18.48
2023-04-20T10:14:24.039Z,18.40
2023-04-20T10:15:24.521Z,18.32
2023-04-20T10:16:24.074Z,18.35
2023-04-20T10:17:24.553Z,18.44
2023-04-20T10:18:24.831Z,18.42
2023-04-20T10:19:24.359Z,18.40
2023-04-20T10:20:24.577Z,18.38
2023-04-20T10:21:24.031Z,18.39
2023-04-20T10:22:24.632Z,18.35
2023-04-20T10:23:24.474Z,18.47
2023-04-20T10:24:24.556Z,18.47
2023-04-20T10:25:24.173Z,18.41
2023-04-20T10:26:23.899Z,18.38
2023-04-20T10:27:24.405Z,18.36
2023-04-20T10:28:23.978Z,18.33
2023-04-20T10:29:23.909Z,18.36
2023-04-20T10:30:24.327Z,18.43
2023-04-20T10:31:24.436Z,18.52
2023-04-20T10:32:24.693Z,18.42
2023-04-20T10:33:24.370Z,18.38
2023-04-20T10:34:24.005Z,18.32
2023-04-20T10:35:24.024Z,18.33
2023-04-20T10:36:23.894Z,18.32
2023-04-20T10:37:24.104Z,18.23
2023-04-20T10:38:24.305Z,18.28
2023-04-20T10:39:24.221Z,18.19
2023-04-20T10:40:24.668Z,18.05
2023-04-20T10:41:24.057Z,17.88
2023-04-20T10:42:23.950Z,17.60
2023-04-20T10:43:24.083Z,17.43
2023-04-20T10:44:23.917Z,17.35
2023-04-20T10:45:24.853Z,17.18
2023-04-20T10:47:28.148Z,16.81
2023-04-20T10:48:24.765Z,16.61
2023-04-20T10:49:23.926Z,16.59
2023-04-20T10:50:24.227Z,16.53
2023-04-20T10:51:24.021Z,16.45
2023-04-20T10:52:24.310Z,16.42
2023-04-20T10:53:24.062Z,16.33
2023-04-20T10:54:24.076Z,16.29
2023-04-20T10:55:24.083Z,16.36
2023-04-20T10:56:23.803Z,16.36
2023-04-20T10:57:24.229Z,16.42
2023-04-20T10:58:24.240Z,16.48
2023-04-20T10:59:24.095Z,16.60
2023-04-20T11:00:25.275Z,16.68
2023-04-20T11:01:23.980Z,16.72
2023-04-20T11:02:24.197Z,16.77
2023-04-20T11:03:24.439Z,16.82
2023-04-20T11:04:24.547Z,16.83
2023-04-20T11:05:24.630Z,16.85
2023-04-20T11:06:24.280Z,16.96
2023-04-20T11:07:24.014Z,17.01
2023-04-20T11:08:24.309Z,17.09
2023-04-20T11:09:25.016Z,17.08
2023-04-20T11:10:25.020Z,17.14
2023-04-20T11:11:24.282Z,17.22
2023-04-20T11:12:24.213Z,17.29
2023-04-20T11:13:26.255Z,17.42
2023-04-20T11:14:24.137Z,17.5
2023-04-20T11:15:24.114Z,17.56
2023-04-20T11:16:30.453Z,17.65
2023-04-20T11:17:24.236Z,17.73
2023-04-20T11:18:24.363Z,17.82
2023-04-20T11:19:24.276Z,17.95
2023-04-20T11:20:23.974Z,18.09
2023-04-20T11:21:24.043Z,18.10
2023-04-20T11:22:24.042Z,18.11
2023-04-20T11:23:23.956Z,18.10
2023-04-20T11:24:24.063Z,18.12
2023-04-20T11:25:23.832Z,18.18
2023-04-20T11:26:24.344Z,18.23
2023-04-20T11:27:24.392Z,18.24
2023-04-20T11:28:24.286Z,18.29
2023-04-20T11:29:24.401Z,18.39
2023-04-20T11:30:24.523Z,18.44
2023-04-20T11:31:24.416Z,18.49
2023-04-20T11:32:24.089Z,18.44
2023-04-20T11:33:24.409Z,18.46
2023-04-20T11:34:24.185Z,18.52
2023-04-20T11:35:24.427Z,18.57
2023-04-20T11:36:24.502Z,18.42
2023-04-20T11:37:24.381Z,18.18
2023-04-20T11:38:24.714Z,18.14
2023-04-20T11:39:23.981Z,18.14
2023-04-20T11:40:25.689Z,18.03
2023-04-20T11:41:24.294Z,18.01
2023-04-20T11:42:24.499Z,17.99
2023-04-20T11:43:24.533Z,17.91
2023-04-20T11:44:24.379Z,17.86
2023-04-20T11:45:24.416Z,17.85
2023-04-20T11:46:23.839Z,17.80
2023-04-20T11:47:24.042Z,17.79
2023-04-20T11:48:24.517Z,17.84
2023-04-20T11:49:24.415Z,17.78
2023-04-20T11:50:24.643Z,17.80
2023-04-20T11:51:24.236Z,18.09
2023-04-20T11:52:23.970Z,17.98
2023-04-20T11:53:23.732Z,17.93
2023-04-20T11:54:24.684Z,17.93
2023-04-20T11:55:24.476Z,18.11
2023-04-20T11:56:24.117Z,18.29
2023-04-20T11:57:24.125Z,18.39
2023-04-20T11:58:23.761Z,18.27
2023-04-20T11:59:24.308Z,18.17
2023-04-20T12:00:24.961Z,18.17
2023-04-20T12:01:24.353Z,18.27
2023-04-20T12:02:24.367Z,18.28
2023-04-20T12:03:24.160Z,18.31
2023-04-20T12:04:24.653Z,18.35
2023-04-20T12:05:24.441Z,18.32
2023-04-20T12:06:24.256Z,18.38
2023-04-20T12:07:29.565Z,18.72
2023-04-20T12:08:24.517Z,18.78
2023-04-20T12:09:24.353Z,18.87
2023-04-20T12:10:24.314Z,19.13
2023-04-20T12:11:24.214Z,19.03
2023-04-20T12:12:24.423Z,18.88
2023-04-20T12:13:24.418Z,18.75
2023-04-20T12:14:24.362Z,18.76
2023-04-20T12:15:24.496Z,19.12
2023-04-20T12:16:24.401Z,19.10
2023-04-20T12:17:24.529Z,19.09
2023-04-20T12:18:24.528Z,19.14
2023-04-20T12:19:24.830Z,19.04
2023-04-20T12:20:25.095Z,19.04
2023-04-20T12:21:23.936Z,19.03
2023-04-20T12:22:24.084Z,19.11
2023-04-20T12:23:23.973Z,19.19
2023-04-20T12:24:24.151Z,19.23
2023-04-20T12:25:24.554Z,19.28
2023-04-20T12:26:31.963Z,19.44
2023-04-20T12:27:24.846Z,19.5
2023-04-20T12:28:24.003Z,19.54
2023-04-20T12:29:23.935Z,20.15
2023-04-20T12:30:25.058Z,19.98
2023-04-20T12:31:38.181Z,19.96
2023-04-20T12:32:24.146Z,19.95
2023-04-20T12:33:24.504Z,19.89
2023-04-20T12:34:24.481Z,19.88
2023-04-20T12:35:43.661Z,19.97
2023-04-20T12:36:24.027Z,20.02
2023-04-20T12:37:24.153Z,20.17
2023-04-20T12:38:24.207Z,20.43
2023-04-20T12:39:24.093Z,20.28
2023-04-20T12:40:24.309Z,20.28
2023-04-20T12:41:24.364Z,20.29
2023-04-20T12:42:24.238Z,20.24
2023-04-20T12:43:24.118Z,20.17
2023-04-20T12:44:23.934Z,20.01
2023-04-20T12:45:24.496Z,19.80
2023-04-20T12:46:24.296Z,19.73
2023-04-20T12:47:24.006Z,19.61
2023-04-20T12:48:24.055Z,19.55
2023-04-20T12:49:24.347Z,19.54
2023-04-20T12:50:24.614Z,19.62
2023-04-20T12:51:24.032Z,19.63
2023-04-20T12:52:24.078Z,19.56
2023-04-20T12:53:24.261Z,19.54
2023-04-20T12:54:24.521Z,19.64
2023-04-20T12:55:23.963Z,19.79
2023-04-20T12:56:24.292Z,19.96
2023-04-20T12:57:24.217Z,20.01
2023-04-20T12:58:24.303Z,20.02
2023-04-20T12:59:24.033Z,20.10